Addison, New York
Current Conditions -  °F | °C
As of 7:53 AM on Wednesday 22 Oct 2014 (Local Time) from KELM Reporting Station
Overcast Overcast  
Wind Chill:   Ceiling: 600
Heat Index:   Visibility: 7mi
Dew Point:   Wind: 10mph
Humidity: 97%   Direction: 10°N
Pressure: 30.08"   Gusts: NA
Location:  42.1°N, 77.23°W
Report Text: KELM 221153Z 01009KT 7SM OVC006 08/08 A3008 RMK AO2 SLP188 70003 T00830078 10100 20083 53016
Loading
Personal Weather Stations






























Interactive Weather Map
Tropical Storm Tracking
New forecast layout! Learn more

10-Day Weather Forecast

Advertisements
Track Severe Weather on mobile